Time;durP1;ratioP1;P1;durP2;ratioP2;P2;SDS_P1;SDS_P2;PMS_P1;PMS_P2;Temp;Humidity;BMP_temperature;BMP_pressure;BME280_temperature;BME280_humidity;BME280_pressure;Samples;Min_cycle;Max_cycle;Signal;HPM_P1;HPM_P2
2023/09/23 00:00:13;;;;;;;1999.90;999.90;;;;;;;;;;5040074;28;20060;-93
2023/09/23 00:02:43;;;;;;;;;;;;;;;;;;5045336;28;20049;-93
2023/09/23 00:05:11;;;;;;;1999.90;999.90;;;;;;;;;;5038753;28;20258;-93
2023/09/23 00:07:38;;;;;;;1999.90;999.90;;;;;;;;;;5037902;28;20444;-93
2023/09/23 00:10:07;;;;;;;1999.90;999.90;;;;;;;;;;5043424;28;20049;-92
2023/09/23 00:12:34;;;;;;;1999.90;999.90;;;;;;;;;;5046426;28;20045;-93
2023/09/23 00:15:01;;;;;;;1999.90;999.90;;;;;;;;;;5046143;28;20052;-92
2023/09/23 00:17:28;;;;;;;1999.90;999.90;;;;;;;;;;5038740;28;20133;-91
2023/09/23 00:19:54;;;;;;;1999.90;999.90;;;;;;;;;;5043400;28;20045;-92
2023/09/23 00:22:23;;;;;;;1999.90;999.90;;;;;;;;;;5043322;28;20061;-92
2023/09/23 00:24:50;;;;;;;1999.90;999.90;;;;;;;;;;5043283;28;20049;-92
2023/09/23 00:27:17;;;;;;;1999.90;999.90;;;;;;;;;;5042018;28;20057;-91
2023/09/23 00:29:45;;;;;;;1999.90;999.90;;;;;;;;;;5040161;28;20045;-92
2023/09/23 00:32:13;;;;;;;1999.90;999.90;;;;;;;;;;5040921;28;20053;-91
2023/09/23 00:34:40;;;;;;;1999.90;999.90;;;;;;;;;;5039713;28;20068;-92
2023/09/23 00:37:08;;;;;;;1999.90;999.90;;;;;;;;;;5036293;28;20053;-92
2023/09/23 00:39:42;;;;;;;1999.90;999.90;;;;;;;;;;5043017;28;20053;-93
2023/09/23 00:42:10;;;;;;;1999.90;999.90;;;;;;;;;;5039376;28;20124;-92
2023/09/23 00:44:39;;;;;;;1999.90;999.90;;;;;;;;;;5042134;28;20061;-92
2023/09/23 00:47:06;;;;;;;1999.90;999.90;;;;;;;;;;5034682;28;20405;-92
2023/09/23 00:49:33;;;;;;;1999.90;999.90;;;;;;;;;;5041710;28;20057;-93
2023/09/23 00:52:01;;;;;;;1999.90;999.90;;;;;;;;;;5042523;28;20055;-92
2023/09/23 00:54:27;;;;;;;1999.90;999.90;;;;;;;;;;5041005;28;20060;-91
2023/09/23 00:56:58;;;;;;;1999.90;999.90;;;;;;;;;;5043305;28;20049;-92
2023/09/23 00:59:24;;;;;;;1999.90;999.90;;;;;;;;;;5043642;28;20053;-92
2023/09/23 01:01:51;;;;;;;1999.90;999.90;;;;;;;;;;5076305;22;20053;-89
2023/09/23 01:04:18;;;;;;;1999.90;999.90;;;;;;;;;;5044147;28;20456;-89
2023/09/23 01:06:44;;;;;;;1999.90;999.90;;;;;;;;;;5045645;28;20068;-90
2023/09/23 01:09:17;;;;;;;1999.90;999.90;;;;;;;;;;5028693;28;20053;-90
2023/09/23 01:11:45;;;;;;;1999.90;999.90;;;;;;;;;;5036431;28;20056;-91
2023/09/23 01:14:14;;;;;;;1999.90;999.90;;;;;;;;;;5041295;28;20052;-89
2023/09/23 01:16:41;;;;;;;1999.90;999.90;;;;;;;;;;5035445;28;20088;-91
2023/09/23 01:19:09;;;;;;;1999.90;999.90;;;;;;;;;;5042257;28;20044;-89
2023/09/23 01:21:36;;;;;;;1999.90;999.90;;;;;;;;;;5022070;28;20056;-89
2023/09/23 01:24:04;;;;;;;1999.90;999.90;;;;;;;;;;5035412;28;20626;-89
2023/09/23 01:26:31;;;;;;;1999.90;999.90;;;;;;;;;;5026666;28;20114;-89
2023/09/23 01:28:58;;;;;;;1999.90;999.90;;;;;;;;;;5027180;28;20115;-90
2023/09/23 01:31:29;;;;;;;1999.90;999.90;;;;;;;;;;5039884;28;20397;-90
2023/09/23 01:33:56;;;;;;;1999.90;999.90;;;;;;;;;;5044555;28;20052;-91
2023/09/23 01:36:22;;;;;;;1999.90;999.90;;;;;;;;;;5043867;28;20125;-91
2023/09/23 01:38:49;;;;;;;1999.90;999.90;;;;;;;;;;5043273;28;20049;-91
2023/09/23 01:41:17;;;;;;;1999.90;999.90;;;;;;;;;;5047633;28;20049;-89
2023/09/23 01:43:44;;;;;;;1999.90;999.90;;;;;;;;;;5039422;28;20071;-90
2023/09/23 01:46:11;;;;;;;1999.90;999.90;;;;;;;;;;5043745;28;20057;-90
2023/09/23 01:48:38;;;;;;;1999.90;999.90;;;;;;;;;;5041736;28;20508;-90
2023/09/23 01:51:06;;;;;;;1999.90;999.90;;;;;;;;;;5043345;28;20079;-89
2023/09/23 01:53:32;;;;;;;1999.90;999.90;;;;;;;;;;5045310;28;20083;-90
2023/09/23 01:55:59;;;;;;;1999.90;999.90;;;;;;;;;;5050342;28;20085;-89
2023/09/23 01:58:27;;;;;;;1999.90;999.90;;;;;;;;;;5026505;28;20405;-90
2023/09/23 02:00:55;;;;;;;1999.90;999.90;;;;;;;;;;5046448;28;20049;-87
2023/09/23 02:03:23;;;;;;;1999.90;999.90;;;;;;;;;;5038654;28;20111;-90
2023/09/23 02:05:50;;;;;;;1999.90;999.90;;;;;;;;;;5034769;28;20060;-90
2023/09/23 02:08:16;;;;;;;1999.90;999.90;;;;;;;;;;5047646;28;20132;-89
2023/09/23 02:10:45;;;;;;;1999.90;999.90;;;;;;;;;;5046868;28;20092;-90
2023/09/23 02:13:12;;;;;;;1999.90;999.90;;;;;;;;;;5032589;28;20048;-92
2023/09/23 02:15:40;;;;;;;1999.90;999.90;;;;;;;;;;5026216;28;20049;-91
2023/09/23 02:18:07;;;;;;;1999.90;999.90;;;;;;;;;;5046648;28;20102;-91
2023/09/23 02:20:34;;;;;;;1999.90;999.90;;;;;;;;;;5037539;28;20060;-90
2023/09/23 02:23:01;;;;;;;1999.90;999.90;;;;;;;;;;5050736;28;20124;-90
2023/09/23 02:25:27;;;;;;;1999.90;999.90;;;;;;;;;;5044996;28;20057;-90
2023/09/23 02:27:55;;;;;;;1999.90;999.90;;;;;;;;;;5045716;28;20140;-89
2023/09/23 02:30:21;;;;;;;1999.90;999.90;;;;;;;;;;5023453;28;20049;-91
2023/09/23 02:32:49;;;;;;;1999.90;999.90;;;;;;;;;;5022197;28;20054;-90
2023/09/23 02:35:17;;;;;;;1999.90;999.90;;;;;;;;;;5041703;28;20053;-90
2023/09/23 02:37:45;;;;;;;1999.90;999.90;;;;;;;;;;5030376;28;20107;-90
2023/09/23 02:40:13;;;;;;;1999.90;999.90;;;;;;;;;;5048396;28;20083;-91
2023/09/23 02:42:42;;;;;;;1999.90;999.90;;;;;;;;;;5043237;28;20099;-89
2023/09/23 02:45:10;;;;;;;1999.90;999.90;;;;;;;;;;5025434;28;20049;-91
2023/09/23 02:47:38;;;;;;;1999.90;999.90;;;;;;;;;;5045307;28;20474;-91
2023/09/23 02:50:09;;;;;;;1999.90;999.90;;;;;;;;;;5039936;28;20064;-90
2023/09/23 02:52:38;;;;;;;1999.90;999.90;;;;;;;;;;5041069;28;20158;-90
2023/09/23 02:55:07;;;;;;;1999.90;999.90;;;;;;;;;;5025658;28;20517;-90
2023/09/23 02:57:35;;;;;;;1999.90;999.90;;;;;;;;;;5046800;28;20066;-91
2023/09/23 03:00:12;;;;;;;1999.90;999.90;;;;;;;;;;5023307;28;20057;-90
2023/09/23 03:02:39;;;;;;;1999.90;999.90;;;;;;;;;;5041336;28;20056;-90
2023/09/23 03:05:07;;;;;;;1999.90;999.90;;;;;;;;;;5039059;28;20060;-90
2023/09/23 03:07:35;;;;;;;1999.90;999.90;;;;;;;;;;5043485;28;20050;-89
2023/09/23 03:10:03;;;;;;;1999.90;999.90;;;;;;;;;;5047500;28;20060;-90
2023/09/23 03:12:40;;;;;;;1999.90;999.90;;;;;;;;;;5051049;28;20581;-90
2023/09/23 03:15:14;;;;;;;1999.90;999.90;;;;;;;;;;5043135;28;20081;-91
2023/09/23 03:17:42;;;;;;;1999.90;999.90;;;;;;;;;;5023512;28;20057;-90
2023/09/23 03:20:11;;;;;;;1999.90;999.90;;;;;;;;;;5047082;28;20049;-91
2023/09/23 03:22:38;;;;;;;1999.90;999.90;;;;;;;;;;5042123;28;20489;-92
2023/09/23 03:25:07;;;;;;;1999.90;999.90;;;;;;;;;;5050542;28;20063;-91
2023/09/23 03:27:33;;;;;;;1999.90;999.90;;;;;;;;;;5039614;28;20063;-91
2023/09/23 03:30:01;;;;;;;1999.90;999.90;;;;;;;;;;5047146;28;20350;-91
2023/09/23 03:32:27;;;;;;;1999.90;999.90;;;;;;;;;;5023268;28;20049;-89
2023/09/23 03:34:54;;;;;;;1999.90;999.90;;;;;;;;;;5037528;28;20051;-90
2023/09/23 03:37:22;;;;;;;1999.90;999.90;;;;;;;;;;5024381;28;20060;-90
2023/09/23 03:39:49;;;;;;;1999.90;999.90;;;;;;;;;;5049172;28;20490;-90
2023/09/23 03:42:16;;;;;;;1999.90;999.90;;;;;;;;;;5041628;28;20049;-90
2023/09/23 03:44:43;;;;;;;1999.90;999.90;;;;;;;;;;5041250;28;20108;-90
2023/09/23 03:47:09;;;;;;;1999.90;999.90;;;;;;;;;;5043460;28;20051;-91
2023/09/23 03:49:36;;;;;;;1999.90;999.90;;;;;;;;;;5038343;28;20133;-89
2023/09/23 03:52:05;;;;;;;1999.90;999.90;;;;;;;;;;5045213;28;20049;-91
2023/09/23 03:54:33;;;;;;;1999.90;999.90;;;;;;;;;;5040849;28;20156;-91
2023/09/23 03:57:00;;;;;;;1999.90;999.90;;;;;;;;;;5051731;28;20052;-91
2023/09/23 03:59:27;;;;;;;1999.90;999.90;;;;;;;;;;5042420;28;20045;-90
2023/09/23 04:01:53;;;;;;;1999.90;999.90;;;;;;;;;;5045483;28;20089;-91
2023/09/23 04:04:20;;;;;;;1999.90;999.90;;;;;;;;;;5024309;28;20052;-90
2023/09/23 04:06:47;;;;;;;1999.90;999.90;;;;;;;;;;5046205;28;20131;-90
2023/09/23 04:09:13;;;;;;;1999.90;999.90;;;;;;;;;;5018846;28;20053;-90
2023/09/23 04:11:41;;;;;;;1999.90;999.90;;;;;;;;;;5043224;28;20051;-90
2023/09/23 04:14:08;;;;;;;1999.90;999.90;;;;;;;;;;5040611;28;20512;-90
2023/09/23 04:16:35;;;;;;;1999.90;999.90;;;;;;;;;;5046175;28;20047;-90
2023/09/23 04:19:01;;;;;;;1999.90;999.90;;;;;;;;;;5040784;28;20054;-90
2023/09/23 04:21:30;;;;;;;1999.90;999.90;;;;;;;;;;5037088;28;20593;-91
2023/09/23 04:23:57;;;;;;;1999.90;999.90;;;;;;;;;;5045396;28;20056;-90
2023/09/23 04:26:24;;;;;;;1999.90;999.90;;;;;;;;;;5033566;28;20320;-91
2023/09/23 04:28:52;;;;;;;1999.90;999.90;;;;;;;;;;5033874;28;20084;-90
2023/09/23 04:31:19;;;;;;;1999.90;999.90;;;;;;;;;;5045919;28;20923;-90
2023/09/23 04:33:47;;;;;;;1999.90;999.90;;;;;;;;;;5036867;28;20517;-90
2023/09/23 04:36:13;;;;;;;1999.90;999.90;;;;;;;;;;5040363;28;20099;-90
2023/09/23 04:38:40;;;;;;;1999.90;999.90;;;;;;;;;;5046310;28;20374;-89
2023/09/23 04:41:07;;;;;;;1999.90;999.90;;;;;;;;;;5026964;28;20041;-90
2023/09/23 04:43:33;;;;;;;1999.90;999.90;;;;;;;;;;5043194;28;20061;-89
2023/09/23 04:46:02;;;;;;;1999.90;999.90;;;;;;;;;;5037225;28;20061;-90
2023/09/23 04:48:30;;;;;;;1999.90;999.90;;;;;;;;;;5040856;28;20053;-91
2023/09/23 04:50:57;;;;;;;1999.90;999.90;;;;;;;;;;5024512;28;20732;-90
2023/09/23 04:53:24;;;;;;;1999.90;999.90;;;;;;;;;;5021884;28;20516;-89
2023/09/23 04:55:51;;;;;;;1999.90;999.90;;;;;;;;;;5043905;28;20055;-90
2023/09/23 04:58:18;;;;;;;1999.90;999.90;;;;;;;;;;5044692;28;20141;-90
2023/09/23 05:00:44;;;;;;;1999.90;999.90;;;;;;;;;;5015140;28;20045;-90
2023/09/23 05:03:12;;;;;;;1999.90;999.90;;;;;;;;;;5045379;28;20072;-89
2023/09/23 05:05:39;;;;;;;1999.90;999.90;;;;;;;;;;5037153;28;20073;-90
2023/09/23 05:08:09;;;;;;;1999.90;999.90;;;;;;;;;;5043795;28;20504;-90
2023/09/23 05:10:36;;;;;;;1999.90;999.90;;;;;;;;;;5027990;28;20065;-90
2023/09/23 05:13:03;;;;;;;1999.90;999.90;;;;;;;;;;5041953;28;20413;-90
2023/09/23 05:15:35;;;;;;;1999.90;999.90;;;;;;;;;;5040530;28;20516;-91
2023/09/23 05:18:02;;;;;;;1999.90;999.90;;;;;;;;;;5042858;28;20049;-89
2023/09/23 05:20:31;;;;;;;1999.90;999.90;;;;;;;;;;5041638;28;20110;-91
2023/09/23 05:23:00;;;;;;;1999.90;999.90;;;;;;;;;;5045525;28;20054;-91
2023/09/23 05:25:27;;;;;;;1999.90;999.90;;;;;;;;;;5039379;28;20477;-90
2023/09/23 05:27:54;;;;;;;1999.90;999.90;;;;;;;;;;5044946;28;20054;-91
2023/09/23 05:30:21;;;;;;;1999.90;999.90;;;;;;;;;;5050181;28;20099;-90
2023/09/23 05:32:48;;;;;;;1999.90;999.90;;;;;;;;;;5043666;28;20057;-90
2023/09/23 05:35:15;;;;;;;1999.90;999.90;;;;;;;;;;5042262;28;20496;-90
2023/09/23 05:37:43;;;;;;;1999.90;999.90;;;;;;;;;;5048928;28;20060;-90
2023/09/23 05:40:22;;;;;;;1999.90;999.90;;;;;;;;;;5042231;28;20445;-90
2023/09/23 05:42:50;;;;;;;1999.90;999.90;;;;;;;;;;5041723;28;20046;-90
2023/09/23 05:45:17;;;;;;;1999.90;999.90;;;;;;;;;;5042179;28;20053;-90
2023/09/23 05:47:45;;;;;;;1999.90;999.90;;;;;;;;;;5044137;28;20084;-91
2023/09/23 05:50:11;;;;;;;1999.90;999.90;;;;;;;;;;5044614;28;20049;-89
2023/09/23 05:52:38;;;;;;;1999.90;999.90;;;;;;;;;;5045241;28;20045;-90
2023/09/23 05:55:06;;;;;;;1999.90;999.90;;;;;;;;;;5041571;28;20057;-90
2023/09/23 05:57:34;;;;;;;1999.90;999.90;;;;;;;;;;5037116;28;20410;-90
2023/09/23 06:00:01;;;;;;;1999.90;999.90;;;;;;;;;;5049438;28;20045;-89
2023/09/23 06:02:28;;;;;;;1999.90;999.90;;;;;;;;;;5047163;28;20583;-90
2023/09/23 06:04:54;;;;;;;1999.90;999.90;;;;;;;;;;5045263;28;20056;-90
2023/09/23 06:07:21;;;;;;;1999.90;999.90;;;;;;;;;;5038361;28;20080;-90
2023/09/23 06:09:47;;;;;;;1999.90;999.90;;;;;;;;;;5046537;28;20391;-91
2023/09/23 06:12:15;;;;;;;1999.90;999.90;;;;;;;;;;5026219;28;20060;-92
2023/09/23 06:15:01;;;;;;;1999.90;999.90;;;;;;;;;;5051909;28;20377;-91
2023/09/23 06:17:28;;;;;;;1999.90;999.90;;;;;;;;;;5024091;28;20064;-91
2023/09/23 06:19:56;;;;;;;1999.90;999.90;;;;;;;;;;5045084;28;20049;-91
2023/09/23 06:22:23;;;;;;;1999.90;999.90;;;;;;;;;;5039428;28;20076;-91
2023/09/23 06:24:50;;;;;;;1999.90;999.90;;;;;;;;;;5051871;28;20062;-90
2023/09/23 06:27:18;;;;;;;1999.90;999.90;;;;;;;;;;5044182;28;20122;-90
2023/09/23 06:29:44;;;;;;;1999.90;999.90;;;;;;;;;;5038410;28;20045;-90
2023/09/23 06:32:11;;;;;;;1999.90;999.90;;;;;;;;;;5046457;28;20485;-91
2023/09/23 06:34:37;;;;;;;1999.90;999.90;;;;;;;;;;5043889;28;20139;-89
2023/09/23 06:37:04;;;;;;;1999.90;999.90;;;;;;;;;;5051910;28;20049;-90
2023/09/23 06:39:31;;;;;;;1999.90;999.90;;;;;;;;;;5019237;28;20452;-91
2023/09/23 06:41:58;;;;;;;1999.90;999.90;;;;;;;;;;5018155;28;20100;-91
2023/09/23 06:44:26;;;;;;;1999.90;999.90;;;;;;;;;;5045056;28;20060;-91
2023/09/23 06:46:53;;;;;;;1999.90;999.90;;;;;;;;;;5049675;28;20050;-89
2023/09/23 06:49:19;;;;;;;1999.90;999.90;;;;;;;;;;5043788;28;20049;-90
2023/09/23 06:51:46;;;;;;;1999.90;999.90;;;;;;;;;;5028096;28;20104;-90
2023/09/23 06:54:12;;;;;;;1999.90;999.90;;;;;;;;;;5043251;28;20052;-89
2023/09/23 06:56:39;;;;;;;1999.90;999.90;;;;;;;;;;5028345;28;20057;-90
2023/09/23 06:59:06;;;;;;;1999.90;999.90;;;;;;;;;;5043926;28;20754;-90
2023/09/23 07:01:35;;;;;;;1999.90;999.90;;;;;;;;;;5025872;28;20060;-91
2023/09/23 07:04:02;;;;;;;1999.90;999.90;;;;;;;;;;5045396;28;20093;-89
2023/09/23 07:06:28;;;;;;;1999.90;999.90;;;;;;;;;;5040217;28;20061;-89
2023/09/23 07:08:55;;;;;;;1999.90;999.90;;;;;;;;;;5041280;28;20049;-88
2023/09/23 07:11:23;;;;;;;1999.90;999.90;;;;;;;;;;5048253;28;20048;-89
2023/09/23 07:13:49;;;;;;;1999.90;999.90;;;;;;;;;;5045101;28;20099;-89
2023/09/23 07:16:16;;;;;;;1999.90;999.90;;;;;;;;;;5038099;28;20044;-88
2023/09/23 07:18:44;;;;;;;1999.90;999.90;;;;;;;;;;5047112;28;20473;-89
2023/09/23 07:21:11;;;;;;;1999.90;999.90;;;;;;;;;;5040815;28;20049;-89
2023/09/23 07:23:38;;;;;;;1999.90;999.90;;;;;;;;;;5046686;28;20041;-89
2023/09/23 07:26:04;;;;;;;1999.90;999.90;;;;;;;;;;5041212;28;20055;-88
2023/09/23 07:28:31;;;;;;;1999.90;999.90;;;;;;;;;;5037037;28;20484;-88
2023/09/23 07:30:57;;;;;;;1999.90;999.90;;;;;;;;;;5039592;28;20488;-87
2023/09/23 07:33:24;;;;;;;1999.90;999.90;;;;;;;;;;5043192;28;20061;-87
2023/09/23 07:35:53;;;;;;;1999.90;999.90;;;;;;;;;;5038409;28;20474;-89
2023/09/23 07:38:20;;;;;;;1999.90;999.90;;;;;;;;;;5043437;28;20052;-88
2023/09/23 07:40:48;;;;;;;1999.90;999.90;;;;;;;;;;5047589;28;20418;-89
2023/09/23 07:43:24;;;;;;;1999.90;999.90;;;;;;;;;;5047781;28;20110;-86
2023/09/23 07:45:51;;;;;;;;;;;;;;;;;;5051235;28;20060;-89
2023/09/23 07:48:18;;;;;;;1999.90;999.90;;;;;;;;;;5046968;28;19940;-88
2023/09/23 07:50:44;;;;;;;1999.90;999.90;;;;;;;;;;5038132;28;20045;-89
2023/09/23 07:53:12;;;;;;;1999.90;999.90;;;;;;;;;;5047943;28;20419;-88
2023/09/23 07:55:39;;;;;;;1999.90;999.90;;;;;;;;;;5040247;28;20049;-89
2023/09/23 07:58:06;;;;;;;1999.90;999.90;;;;;;;;;;5048699;28;20045;-90
2023/09/23 08:00:32;;;;;;;1999.90;999.90;;;;;;;;;;5046092;28;20405;-90
2023/09/23 08:02:59;;;;;;;1999.90;999.90;;;;;;;;;;5042545;28;20517;-86
2023/09/23 08:05:26;;;;;;;1999.90;999.90;;;;;;;;;;5037902;28;20559;-86
2023/09/23 08:07:53;;;;;;;1999.90;999.90;;;;;;;;;;5043259;28;20349;-85
2023/09/23 08:10:21;;;;;;;1999.90;999.90;;;;;;;;;;5041664;28;20084;-87
2023/09/23 08:12:47;;;;;;;1999.90;999.90;;;;;;;;;;5044870;28;20036;-86
2023/09/23 08:15:15;;;;;;;1999.90;999.90;;;;;;;;;;5046410;28;20053;-89
2023/09/23 08:17:41;;;;;;;1999.90;999.90;;;;;;;;;;5042852;28;20041;-85
2023/09/23 08:20:17;;;;;;;1999.90;999.90;;;;;;;;;;5042393;28;20081;-85
2023/09/23 08:22:44;;;;;;;1999.90;999.90;;;;;;;;;;5033063;28;20064;-89
2023/09/23 08:25:11;;;;;;;1999.90;999.90;;;;;;;;;;5039742;28;20445;-88
2023/09/23 08:27:39;;;;;;;1999.90;999.90;;;;;;;;;;5041385;28;20045;-86
2023/09/23 08:30:07;;;;;;;1999.90;999.90;;;;;;;;;;5042914;28;20048;-86
2023/09/23 08:32:34;;;;;;;1999.90;999.90;;;;;;;;;;5044375;28;20137;-86
2023/09/23 08:35:00;;;;;;;1999.90;999.90;;;;;;;;;;5046632;28;20044;-88
2023/09/23 08:37:27;;;;;;;1999.90;999.90;;;;;;;;;;5037052;28;20153;-87
2023/09/23 08:39:54;;;;;;;1999.90;999.90;;;;;;;;;;5037043;28;20130;-82
2023/09/23 08:42:22;;;;;;;1999.90;999.90;;;;;;;;;;5037055;28;20057;-82
2023/09/23 08:44:51;;;;;;;1999.90;999.90;;;;;;;;;;5043374;28;20505;-81
2023/09/23 08:47:18;;;;;;;1999.90;999.90;;;;;;;;;;5033848;28;20494;-82
2023/09/23 08:49:45;;;;;;;1999.90;999.90;;;;;;;;;;5036289;28;20052;-84
2023/09/23 08:52:13;;;;;;;1999.90;999.90;;;;;;;;;;5042734;28;20115;-80
2023/09/23 08:54:40;;;;;;;1999.90;999.90;;;;;;;;;;5034116;28;20055;-82
2023/09/23 08:57:06;;;;;;;1999.90;999.90;;;;;;;;;;5038548;28;20516;-84
2023/09/23 08:59:33;;;;;;;1999.90;999.90;;;;;;;;;;5039451;28;20145;-81
2023/09/23 09:02:02;;;;;;;1999.90;999.90;;;;;;;;;;5039364;28;20065;-81
2023/09/23 09:04:29;;;;;;;1999.90;999.90;;;;;;;;;;5039403;28;20409;-81
2023/09/23 09:06:57;;;;;;;1999.90;999.90;;;;;;;;;;5043414;28;20057;-83
2023/09/23 09:09:25;;;;;;;1999.90;999.90;;;;;;;;;;5039380;28;20492;-81
2023/09/23 09:11:54;;;;;;;1999.90;999.90;;;;;;;;;;5042533;28;20042;-82
2023/09/23 09:14:22;;;;;;;1999.90;999.90;;;;;;;;;;5040971;28;20049;-81
2023/09/23 09:16:49;;;;;;;1999.90;999.90;;;;;;;;;;5045812;28;20189;-81
2023/09/23 09:19:18;;;;;;;1999.90;999.90;;;;;;;;;;5043831;28;20517;-82
2023/09/23 09:21:45;;;;;;;1999.90;999.90;;;;;;;;;;5039328;28;20391;-81
2023/09/23 09:24:11;;;;;;;1999.90;999.90;;;;;;;;;;5035583;28;20052;-81
2023/09/23 09:26:39;;;;;;;1999.90;999.90;;;;;;;;;;5045888;28;20049;-81
2023/09/23 09:29:05;;;;;;;1999.90;999.90;;;;;;;;;;5048363;28;20106;-82
2023/09/23 09:31:34;;;;;;;1999.90;999.90;;;;;;;;;;5051411;28;20061;-81
2023/09/23 09:34:04;;;;;;;1999.90;999.90;;;;;;;;;;5048010;28;20048;-82
2023/09/23 09:36:34;;;;;;;1999.90;999.90;;;;;;;;;;5041211;28;20497;-81
2023/09/23 09:39:02;;;;;;;1999.90;999.90;;;;;;;;;;5042177;28;20045;-81
2023/09/23 09:41:31;;;;;;;1999.90;999.90;;;;;;;;;;5048747;28;20079;-81
2023/09/23 09:44:00;;;;;;;1999.90;999.90;;;;;;;;;;5045821;28;20048;-82
2023/09/23 09:46:28;;;;;;;1999.90;999.90;;;;;;;;;;5047426;28;20046;-83
2023/09/23 09:48:55;;;;;;;1999.90;999.90;;;;;;;;;;5047980;28;20045;-82
2023/09/23 09:51:22;;;;;;;1999.90;999.90;;;;;;;;;;5045564;28;20504;-81
2023/09/23 09:53:51;;;;;;;1999.90;999.90;;;;;;;;;;5052849;28;20511;-82
2023/09/23 09:56:19;;;;;;;1999.90;999.90;;;;;;;;;;5057526;28;20048;-81
2023/09/23 09:58:49;;;;;;;1999.90;999.90;;;;;;;;;;5056208;28;20049;-82
2023/09/23 10:01:17;;;;;;;1999.90;999.90;;;;;;;;;;5056140;28;20041;-82
2023/09/23 10:03:45;;;;;;;1999.90;999.90;;;;;;;;;;5049513;28;20102;-82
2023/09/23 10:06:18;;;;;;;1999.90;999.90;;;;;;;;;;5047371;28;20098;-82
2023/09/23 10:08:48;;;;;;;1999.90;999.90;;;;;;;;;;5047495;28;20056;-81
2023/09/23 10:11:16;;;;;;;1999.90;999.90;;;;;;;;;;5045687;28;20165;-81
2023/09/23 10:13:43;;;;;;;1999.90;999.90;;;;;;;;;;5040537;28;20076;-81
2023/09/23 10:16:12;;;;;;;1999.90;999.90;;;;;;;;;;5043056;28;20049;-81
2023/09/23 10:18:40;;;;;;;1999.90;999.90;;;;;;;;;;5047038;28;20079;-81
2023/09/23 10:21:08;;;;;;;1999.90;999.90;;;;;;;;;;5054941;28;20417;-81
2023/09/23 10:23:35;;;;;;;1999.90;999.90;;;;;;;;;;5051971;28;20059;-82
2023/09/23 10:26:13;;;;;;;1999.90;999.90;;;;;;;;;;5047215;28;20095;-81
2023/09/23 10:28:42;;;;;;;1999.90;999.90;;;;;;;;;;5043515;28;20393;-81
2023/09/23 10:31:10;;;;;;;1999.90;999.90;;;;;;;;;;5047321;28;20159;-81
2023/09/23 10:33:37;;;;;;;1999.90;999.90;;;;;;;;;;5045644;28;20049;-82
2023/09/23 10:36:06;;;;;;;1999.90;999.90;;;;;;;;;;5041242;28;20053;-84
2023/09/23 10:38:37;;;;;;;1999.90;999.90;;;;;;;;;;5043656;28;20107;-82
2023/09/23 10:41:04;;;;;;;1999.90;999.90;;;;;;;;;;5043791;28;20639;-83
2023/09/23 10:43:31;;;;;;;1999.90;999.90;;;;;;;;;;5046138;28;20057;-81
2023/09/23 10:46:01;;;;;;;1999.90;999.90;;;;;;;;;;5045461;28;20483;-82
2023/09/23 10:48:28;;;;;;;1999.90;999.90;;;;;;;;;;5048669;28;20078;-81
2023/09/23 10:50:54;;;;;;;1999.90;999.90;;;;;;;;;;5050329;28;20412;-82
2023/09/23 10:53:22;;;;;;;1999.90;999.90;;;;;;;;;;5052339;28;20136;-82
2023/09/23 10:55:49;;;;;;;1999.90;999.90;;;;;;;;;;5048488;28;20041;-81
2023/09/23 10:58:16;;;;;;;1999.90;999.90;;;;;;;;;;5046222;28;20283;-82
2023/09/23 11:00:42;;;;;;;1999.90;999.90;;;;;;;;;;5049861;28;20101;-82
2023/09/23 11:03:12;;;;;;;1999.90;999.90;;;;;;;;;;5051230;28;20068;-81
2023/09/23 11:05:39;;;;;;;1999.90;999.90;;;;;;;;;;5045204;28;20045;-81
2023/09/23 11:08:06;;;;;;;1999.90;999.90;;;;;;;;;;5048054;28;20071;-80
2023/09/23 11:10:33;;;;;;;1999.90;999.90;;;;;;;;;;5042130;28;20051;-82
2023/09/23 11:13:00;;;;;;;1999.90;999.90;;;;;;;;;;5040135;28;20110;-81
2023/09/23 11:15:30;;;;;;;1999.90;999.90;;;;;;;;;;5048569;28;20048;-81
2023/09/23 11:17:57;;;;;;;1999.90;999.90;;;;;;;;;;5053895;28;20116;-82
2023/09/23 11:20:32;;;;;;;1999.90;999.90;;;;;;;;;;5045748;28;20053;-82
2023/09/23 11:23:02;;;;;;;1999.90;999.90;;;;;;;;;;5045068;28;20062;-83
2023/09/23 11:25:28;;;;;;;1999.90;999.90;;;;;;;;;;5054536;28;20186;-83
2023/09/23 11:27:58;;;;;;;1999.90;999.90;;;;;;;;;;5047687;28;20037;-81
2023/09/23 11:30:25;;;;;;;1999.90;999.90;;;;;;;;;;5051607;28;20492;-82
2023/09/23 11:32:52;;;;;;;1999.90;999.90;;;;;;;;;;5041790;28;20041;-82
2023/09/23 11:35:18;;;;;;;1999.90;999.90;;;;;;;;;;5043193;28;20103;-81
2023/09/23 11:37:47;;;;;;;1999.90;999.90;;;;;;;;;;5048983;28;20060;-82
2023/09/23 11:40:15;;;;;;;1999.90;999.90;;;;;;;;;;5044300;28;20140;-82
2023/09/23 11:42:42;;;;;;;1999.90;999.90;;;;;;;;;;5047329;28;20467;-81
2023/09/23 11:45:10;;;;;;;1999.90;999.90;;;;;;;;;;5043787;28;20133;-82
2023/09/23 11:47:37;;;;;;;1999.90;999.90;;;;;;;;;;5042648;28;20069;-82
2023/09/23 11:50:05;;;;;;;1999.90;999.90;;;;;;;;;;5048800;28;20072;-83
2023/09/23 11:52:32;;;;;;;1999.90;999.90;;;;;;;;;;5045060;28;20124;-82
2023/09/23 11:55:00;;;;;;;1999.90;999.90;;;;;;;;;;5041980;28;20063;-81
2023/09/23 11:57:26;;;;;;;1999.90;999.90;;;;;;;;;;5042880;28;20056;-82
2023/09/23 11:59:54;;;;;;;1999.90;999.90;;;;;;;;;;5040287;28;20489;-81
2023/09/23 12:02:21;;;;;;;1999.90;999.90;;;;;;;;;;5048503;28;20050;-82
2023/09/23 12:04:48;;;;;;;1999.90;999.90;;;;;;;;;;5043132;28;20054;-81
2023/09/23 12:07:16;;;;;;;1999.90;999.90;;;;;;;;;;5044185;28;20053;-83
2023/09/23 12:09:43;;;;;;;1999.90;999.90;;;;;;;;;;5042819;28;20528;-83
2023/09/23 12:12:12;;;;;;;1999.90;999.90;;;;;;;;;;5044326;28;20045;-82
2023/09/23 12:14:42;;;;;;;1999.90;999.90;;;;;;;;;;5051281;28;20127;-81
2023/09/23 12:17:09;;;;;;;1999.90;999.90;;;;;;;;;;5046786;28;20048;-82
2023/09/23 12:19:36;;;;;;;1999.90;999.90;;;;;;;;;;5044240;28;20052;-81
2023/09/23 12:22:02;;;;;;;1999.90;999.90;;;;;;;;;;5047653;28;20049;-82
2023/09/23 12:24:29;;;;;;;1999.90;999.90;;;;;;;;;;5050238;28;20053;-83
2023/09/23 12:26:55;;;;;;;1999.90;999.90;;;;;;;;;;5043734;28;20040;-82
2023/09/23 12:29:23;;;;;;;1999.90;999.90;;;;;;;;;;5041726;28;20049;-83
2023/09/23 12:31:50;;;;;;;1999.90;999.90;;;;;;;;;;5046932;28;20508;-83
2023/09/23 12:34:16;;;;;;;1999.90;999.90;;;;;;;;;;5040961;28;20041;-83
2023/09/23 12:36:43;;;;;;;1999.90;999.90;;;;;;;;;;5037593;28;20054;-84
2023/09/23 12:39:10;;;;;;;1999.90;999.90;;;;;;;;;;5053114;28;20516;-86
2023/09/23 12:41:37;;;;;;;1999.90;999.90;;;;;;;;;;5052695;28;20429;-83
2023/09/23 12:44:03;;;;;;;1999.90;999.90;;;;;;;;;;5041768;28;20409;-84
2023/09/23 12:46:31;;;;;;;1999.90;999.90;;;;;;;;;;5046721;28;20050;-83
2023/09/23 12:48:58;;;;;;;1999.90;999.90;;;;;;;;;;5042432;28;20045;-83
2023/09/23 12:51:24;;;;;;;1999.90;999.90;;;;;;;;;;5045623;28;20061;-83
2023/09/23 12:53:51;;;;;;;1999.90;999.90;;;;;;;;;;5047605;28;20054;-82
2023/09/23 12:56:19;;;;;;;1999.90;999.90;;;;;;;;;;5051735;28;20040;-82
2023/09/23 12:58:45;;;;;;;1999.90;999.90;;;;;;;;;;5054997;28;20052;-83
2023/09/23 13:01:12;;;;;;;1999.90;999.90;;;;;;;;;;5044922;28;20478;-82
2023/09/23 13:03:40;;;;;;;1999.90;999.90;;;;;;;;;;5044912;28;20107;-82
2023/09/23 13:06:07;;;;;;;1999.90;999.90;;;;;;;;;;5045552;28;20548;-81
2023/09/23 13:08:33;;;;;;;1999.90;999.90;;;;;;;;;;5043853;28;20056;-83
2023/09/23 13:11:00;;;;;;;1999.90;999.90;;;;;;;;;;5044846;28;20387;-82
2023/09/23 14:34:49;;;;;;;1999.90;999.90;;;;;;;;;;5116907;27;20384;-83
2023/09/23 14:37:15;;;;;;;1999.90;999.90;;;;;;;;;;5115965;28;20051;-83
2023/09/23 14:39:42;;;;;;;1999.90;999.90;;;;;;;;;;5128418;27;20089;-84
2023/09/23 14:42:09;;;;;;;1999.90;999.90;;;;;;;;;;5115789;28;20059;-83
2023/09/23 14:44:35;;;;;;;1999.90;999.90;;;;;;;;;;5119738;27;20048;-84
2023/09/23 14:47:02;;;;;;;1999.90;999.90;;;;;;;;;;5115095;27;20055;-84
2023/09/23 14:49:29;;;;;;;1999.90;999.90;;;;;;;;;;5119842;27;20050;-83
2023/09/23 14:51:57;;;;;;;1999.90;999.90;;;;;;;;;;5118851;27;20066;-83
2023/09/23 14:54:23;;;;;;;1999.90;999.90;;;;;;;;;;5110159;27;20040;-83
2023/09/23 14:56:50;;;;;;;1999.90;999.90;;;;;;;;;;5117450;27;20047;-83
2023/09/23 14:59:17;;;;;;;1999.90;999.90;;;;;;;;;;5114620;28;20131;-83
2023/09/23 15:01:46;;;;;;;1999.90;999.90;;;;;;;;;;5120088;27;20057;-82
2023/09/23 15:04:12;;;;;;;1999.90;999.90;;;;;;;;;;5115681;27;20036;-83